sensor_id;sensor_type;location;lat;lon;timestamp;pressure;altitude;pressure_sealevel;temperature
24639;BMP180;1641;51.306;12.384;2022-10-22T00:00:10;99686.00;;;16.90
24639;BMP180;1641;51.306;12.384;2022-10-22T00:02:36;99679.00;;;17.00
24639;BMP180;1641;51.306;12.384;2022-10-22T00:05:02;99674.00;;;17.10
24639;BMP180;1641;51.306;12.384;2022-10-22T00:07:27;99655.00;;;17.10
24639;BMP180;1641;51.306;12.384;2022-10-22T00:09:53;99683.00;;;17.20
24639;BMP180;1641;51.306;12.384;2022-10-22T00:12:18;99692.00;;;17.10
24639;BMP180;1641;51.306;12.384;2022-10-22T00:14:44;99677.00;;;17.20
24639;BMP180;1641;51.306;12.384;2022-10-22T00:17:10;99678.00;;;17.20
24639;BMP180;1641;51.306;12.384;2022-10-22T00:19:35;99677.00;;;17.00
24639;BMP180;1641;51.306;12.384;2022-10-22T00:22:01;99683.00;;;17.10
24639;BMP180;1641;51.306;12.384;2022-10-22T00:24:30;99695.00;;;17.20
24639;BMP180;1641;51.306;12.384;2022-10-22T00:26:56;99682.00;;;17.10
24639;BMP180;1641;51.306;12.384;2022-10-22T00:29:22;99682.00;;;17.20
24639;BMP180;1641;51.306;12.384;2022-10-22T00:31:47;99685.00;;;17.30
24639;BMP180;1641;51.306;12.384;2022-10-22T00:34:17;99684.00;;;17.20
24639;BMP180;1641;51.306;12.384;2022-10-22T00:36:44;99670.00;;;17.20
24639;BMP180;1641;51.306;12.384;2022-10-22T00:39:10;99697.00;;;17.20
24639;BMP180;1641;51.306;12.384;2022-10-22T00:41:37;99712.00;;;17.10
24639;BMP180;1641;51.306;12.384;2022-10-22T00:44:04;99730.00;;;17.00
24639;BMP180;1641;51.306;12.384;2022-10-22T00:46:30;99730.00;;;17.00
24639;BMP180;1641;51.306;12.384;2022-10-22T00:48:57;99702.00;;;17.00
24639;BMP180;1641;51.306;12.384;2022-10-22T00:51:28;99707.00;;;17.00
24639;BMP180;1641;51.306;12.384;2022-10-22T00:53:58;99717.00;;;16.90
24639;BMP180;1641;51.306;12.384;2022-10-22T00:56:24;99705.00;;;16.80
24639;BMP180;1641;51.306;12.384;2022-10-22T00:58:54;99716.00;;;16.90
24639;BMP180;1641;51.306;12.384;2022-10-22T01:01:24;99715.00;;;17.00
24639;BMP180;1641;51.306;12.384;2022-10-22T01:03:50;99712.00;;;17.10
24639;BMP180;1641;51.306;12.384;2022-10-22T01:06:24;99708.00;;;17.00
24639;BMP180;1641;51.306;12.384;2022-10-22T01:09:08;99707.00;;;17.20
24639;BMP180;1641;51.306;12.384;2022-10-22T01:18:25;99692.00;;;17.20
24639;BMP180;1641;51.306;12.384;2022-10-22T01:21:03;99706.00;;;17.30
24639;BMP180;1641;51.306;12.384;2022-10-22T01:29:20;99700.00;;;17.20
24639;BMP180;1641;51.306;12.384;2022-10-22T01:31:59;99698.00;;;17.40
24639;BMP180;1641;51.306;12.384;2022-10-22T01:34:29;99681.00;;;17.40
24639;BMP180;1641;51.306;12.384;2022-10-22T01:36:56;99698.00;;;17.40
24639;BMP180;1641;51.306;12.384;2022-10-22T01:39:23;99696.00;;;17.20
24639;BMP180;1641;51.306;12.384;2022-10-22T01:41:49;99692.00;;;17.00
24639;BMP180;1641;51.306;12.384;2022-10-22T01:44:29;99709.00;;;17.00
24639;BMP180;1641;51.306;12.384;2022-10-22T01:49:48;99712.00;;;17.10
24639;BMP180;1641;51.306;12.384;2022-10-22T01:58:41;99707.00;;;17.10
24639;BMP180;1641;51.306;12.384;2022-10-22T02:04:00;99692.00;;;17.00
24639;BMP180;1641;51.306;12.384;2022-10-22T02:06:30;99699.00;;;17.00
24639;BMP180;1641;51.306;12.384;2022-10-22T02:08:57;99705.00;;;17.00
24639;BMP180;1641;51.306;12.384;2022-10-22T02:11:24;99692.00;;;16.90
24639;BMP180;1641;51.306;12.384;2022-10-22T02:13:52;99700.00;;;16.90
24639;BMP180;1641;51.306;12.384;2022-10-22T02:16:28;99702.00;;;16.90
24639;BMP180;1641;51.306;12.384;2022-10-22T02:18:55;99681.00;;;17.00
24639;BMP180;1641;51.306;12.384;2022-10-22T02:21:22;99674.00;;;17.10
24639;BMP180;1641;51.306;12.384;2022-10-22T02:23:48;99675.00;;;16.90
24639;BMP180;1641;51.306;12.384;2022-10-22T02:26:27;99670.00;;;16.90
24639;BMP180;1641;51.306;12.384;2022-10-22T02:31:31;99677.00;;;16.90
24639;BMP180;1641;51.306;12.384;2022-10-22T02:33:58;99669.00;;;16.90
24639;BMP180;1641;51.306;12.384;2022-10-22T02:36:25;99665.00;;;16.70
24639;BMP180;1641;51.306;12.384;2022-10-22T02:38:51;99657.00;;;16.70
24639;BMP180;1641;51.306;12.384;2022-10-22T02:41:17;99658.00;;;16.60
24639;BMP180;1641;51.306;12.384;2022-10-22T02:43:50;99637.00;;;16.70
24639;BMP180;1641;51.306;12.384;2022-10-22T02:46:15;99667.00;;;16.80
24639;BMP180;1641;51.306;12.384;2022-10-22T02:48:41;99663.00;;;16.90
24639;BMP180;1641;51.306;12.384;2022-10-22T02:51:06;99655.00;;;16.80
24639;BMP180;1641;51.306;12.384;2022-10-22T02:53:32;99669.00;;;16.70
24639;BMP180;1641;51.306;12.384;2022-10-22T02:55:58;99643.00;;;16.80
24639;BMP180;1641;51.306;12.384;2022-10-22T02:58:23;99655.00;;;16.60
24639;BMP180;1641;51.306;12.384;2022-10-22T03:00:48;99665.00;;;16.40
24639;BMP180;1641;51.306;12.384;2022-10-22T03:03:13;99655.00;;;16.50
24639;BMP180;1641;51.306;12.384;2022-10-22T03:05:39;99672.00;;;16.60
24639;BMP180;1641;51.306;12.384;2022-10-22T03:08:05;99660.00;;;16.70
24639;BMP180;1641;51.306;12.384;2022-10-22T03:10:30;99678.00;;;16.60
24639;BMP180;1641;51.306;12.384;2022-10-22T03:12:55;99662.00;;;16.60
24639;BMP180;1641;51.306;12.384;2022-10-22T03:15:21;99650.00;;;16.60
24639;BMP180;1641;51.306;12.384;2022-10-22T03:17:46;99687.00;;;16.80
24639;BMP180;1641;51.306;12.384;2022-10-22T03:20:11;99684.00;;;16.90
24639;BMP180;1641;51.306;12.384;2022-10-22T03:22:38;99643.00;;;16.80
24639;BMP180;1641;51.306;12.384;2022-10-22T03:25:07;99696.00;;;16.70
24639;BMP180;1641;51.306;12.384;2022-10-22T03:27:35;99706.00;;;16.70
24639;BMP180;1641;51.306;12.384;2022-10-22T03:30:03;99703.00;;;16.50
24639;BMP180;1641;51.306;12.384;2022-10-22T03:32:29;99684.00;;;16.80
24639;BMP180;1641;51.306;12.384;2022-10-22T03:34:54;99684.00;;;16.80
24639;BMP180;1641;51.306;12.384;2022-10-22T03:37:20;99705.00;;;16.80
24639;BMP180;1641;51.306;12.384;2022-10-22T03:39:45;99693.00;;;16.60
24639;BMP180;1641;51.306;12.384;2022-10-22T03:42:11;99698.00;;;16.50
24639;BMP180;1641;51.306;12.384;2022-10-22T03:44:38;99668.00;;;16.50
24639;BMP180;1641;51.306;12.384;2022-10-22T03:47:04;99698.00;;;16.70
24639;BMP180;1641;51.306;12.384;2022-10-22T03:49:29;99698.00;;;16.60
24639;BMP180;1641;51.306;12.384;2022-10-22T03:51:54;99702.00;;;16.50
24639;BMP180;1641;51.306;12.384;2022-10-22T03:54:20;99712.00;;;16.40
24639;BMP180;1641;51.306;12.384;2022-10-22T03:56:45;99689.00;;;16.50
24639;BMP180;1641;51.306;12.384;2022-10-22T03:59:10;99703.00;;;16.60
24639;BMP180;1641;51.306;12.384;2022-10-22T04:01:37;99702.00;;;16.60
24639;BMP180;1641;51.306;12.384;2022-10-22T04:04:02;99705.00;;;16.60
24639;BMP180;1641;51.306;12.384;2022-10-22T04:06:28;99709.00;;;16.70
24639;BMP180;1641;51.306;12.384;2022-10-22T04:08:53;99710.00;;;16.60
24639;BMP180;1641;51.306;12.384;2022-10-22T04:11:19;99706.00;;;16.50
24639;BMP180;1641;51.306;12.384;2022-10-22T04:13:44;99705.00;;;16.60
24639;BMP180;1641;51.306;12.384;2022-10-22T04:16:14;99712.00;;;16.50
24639;BMP180;1641;51.306;12.384;2022-10-22T04:18:41;99714.00;;;16.50
24639;BMP180;1641;51.306;12.384;2022-10-22T04:21:09;99711.00;;;16.60
24639;BMP180;1641;51.306;12.384;2022-10-22T04:23:34;99714.00;;;16.80
24639;BMP180;1641;51.306;12.384;2022-10-22T04:26:02;99714.00;;;16.70
24639;BMP180;1641;51.306;12.384;2022-10-22T04:28:27;99722.00;;;16.70
24639;BMP180;1641;51.306;12.384;2022-10-22T04:30:53;99720.00;;;16.80
24639;BMP180;1641;51.306;12.384;2022-10-22T04:33:18;99713.00;;;16.70
24639;BMP180;1641;51.306;12.384;2022-10-22T04:35:44;99728.00;;;16.60
24639;BMP180;1641;51.306;12.384;2022-10-22T04:38:09;99730.00;;;16.40
24639;BMP180;1641;51.306;12.384;2022-10-22T04:40:34;99738.00;;;16.30
24639;BMP180;1641;51.306;12.384;2022-10-22T04:43:00;99736.00;;;16.00
24639;BMP180;1641;51.306;12.384;2022-10-22T04:45:25;99728.00;;;16.00
24639;BMP180;1641;51.306;12.384;2022-10-22T04:47:50;99728.00;;;16.10
24639;BMP180;1641;51.306;12.384;2022-10-22T04:50:16;99726.00;;;16.10
24639;BMP180;1641;51.306;12.384;2022-10-22T04:52:41;99724.00;;;16.20
24639;BMP180;1641;51.306;12.384;2022-10-22T04:55:07;99717.00;;;16.20
24639;BMP180;1641;51.306;12.384;2022-10-22T04:57:32;99721.00;;;16.20
24639;BMP180;1641;51.306;12.384;2022-10-22T04:59:57;99715.00;;;16.20
24639;BMP180;1641;51.306;12.384;2022-10-22T05:02:23;99710.00;;;16.10
24639;BMP180;1641;51.306;12.384;2022-10-22T05:04:48;99709.00;;;16.10
24639;BMP180;1641;51.306;12.384;2022-10-22T05:07:13;99708.00;;;15.80
24639;BMP180;1641;51.306;12.384;2022-10-22T05:09:38;99713.00;;;15.90
24639;BMP180;1641;51.306;12.384;2022-10-22T05:12:04;99711.00;;;16.00
24639;BMP180;1641;51.306;12.384;2022-10-22T05:14:30;99713.00;;;16.30
24639;BMP180;1641;51.306;12.384;2022-10-22T05:16:55;99724.00;;;16.30
24639;BMP180;1641;51.306;12.384;2022-10-22T05:19:23;99724.00;;;16.30
24639;BMP180;1641;51.306;12.384;2022-10-22T05:21:54;99729.00;;;16.30
24639;BMP180;1641;51.306;12.384;2022-10-22T05:24:20;99732.00;;;16.40
24639;BMP180;1641;51.306;12.384;2022-10-22T05:26:50;99729.00;;;16.00
24639;BMP180;1641;51.306;12.384;2022-10-22T05:29:17;99736.00;;;16.10
24639;BMP180;1641;51.306;12.384;2022-10-22T05:31:44;99734.00;;;16.40
24639;BMP180;1641;51.306;12.384;2022-10-22T05:34:10;99743.00;;;16.50
24639;BMP180;1641;51.306;12.384;2022-10-22T05:36:36;99744.00;;;16.40
24639;BMP180;1641;51.306;12.384;2022-10-22T05:39:02;99744.00;;;16.20
24639;BMP180;1641;51.306;12.384;2022-10-22T05:41:32;99752.00;;;16.20
24639;BMP180;1641;51.306;12.384;2022-10-22T05:44:01;99744.00;;;16.30
24639;BMP180;1641;51.306;12.384;2022-10-22T05:46:28;99763.00;;;16.50
24639;BMP180;1641;51.306;12.384;2022-10-22T05:49:04;99722.00;;;16.30
24639;BMP180;1641;51.306;12.384;2022-10-22T05:51:32;99724.00;;;16.50
24639;BMP180;1641;51.306;12.384;2022-10-22T05:54:00;99719.00;;;16.60
24639;BMP180;1641;51.306;12.384;2022-10-22T05:56:28;99764.00;;;16.50
24639;BMP180;1641;51.306;12.384;2022-10-22T05:58:55;99757.00;;;16.60
24639;BMP180;1641;51.306;12.384;2022-10-22T06:01:29;99759.00;;;16.50
24639;BMP180;1641;51.306;12.384;2022-10-22T06:03:58;99763.00;;;16.70
24639;BMP180;1641;51.306;12.384;2022-10-22T06:06:47;99756.00;;;16.90
24639;BMP180;1641;51.306;12.384;2022-10-22T06:09:19;99773.00;;;17.10
24639;BMP180;1641;51.306;12.384;2022-10-22T06:11:46;99783.00;;;16.90
24639;BMP180;1641;51.306;12.384;2022-10-22T06:14:13;99774.00;;;16.80
24639;BMP180;1641;51.306;12.384;2022-10-22T06:16:39;99799.00;;;17.00
24639;BMP180;1641;51.306;12.384;2022-10-22T06:19:05;99797.00;;;17.20
24639;BMP180;1641;51.306;12.384;2022-10-22T06:21:31;99811.00;;;17.20
24639;BMP180;1641;51.306;12.384;2022-10-22T06:23:57;99800.00;;;17.20
24639;BMP180;1641;51.306;12.384;2022-10-22T06:26:23;99792.00;;;17.20
24639;BMP180;1641;51.306;12.384;2022-10-22T06:28:48;99823.00;;;17.30
24639;BMP180;1641;51.306;12.384;2022-10-22T06:31:13;99824.00;;;17.40
24639;BMP180;1641;51.306;12.384;2022-10-22T06:33:39;99828.00;;;17.40
24639;BMP180;1641;51.306;12.384;2022-10-22T06:36:15;99817.00;;;17.30
24639;BMP180;1641;51.306;12.384;2022-10-22T06:38:41;99832.00;;;17.40
24639;BMP180;1641;51.306;12.384;2022-10-22T06:41:12;99833.00;;;17.40
24639;BMP180;1641;51.306;12.384;2022-10-22T06:43:38;99837.00;;;17.20
24639;BMP180;1641;51.306;12.384;2022-10-22T06:46:06;99850.00;;;17.30
24639;BMP180;1641;51.306;12.384;2022-10-22T06:48:34;99849.00;;;17.40
24639;BMP180;1641;51.306;12.384;2022-10-22T06:51:02;99844.00;;;17.40
24639;BMP180;1641;51.306;12.384;2022-10-22T06:53:28;99838.00;;;17.60
24639;BMP180;1641;51.306;12.384;2022-10-22T06:55:54;99850.00;;;17.70
24639;BMP180;1641;51.306;12.384;2022-10-22T06:58:19;99846.00;;;17.70
24639;BMP180;1641;51.306;12.384;2022-10-22T07:00:45;99848.00;;;17.70
24639;BMP180;1641;51.306;12.384;2022-10-22T07:03:14;99857.00;;;17.70
24639;BMP180;1641;51.306;12.384;2022-10-22T07:05:40;99856.00;;;17.80
24639;BMP180;1641;51.306;12.384;2022-10-22T07:08:05;99866.00;;;17.80
24639;BMP180;1641;51.306;12.384;2022-10-22T07:10:31;99865.00;;;17.90
24639;BMP180;1641;51.306;12.384;2022-10-22T07:12:57;99872.00;;;18.10
24639;BMP180;1641;51.306;12.384;2022-10-22T07:15:22;99880.00;;;18.00
24639;BMP180;1641;51.306;12.384;2022-10-22T07:17:48;99882.00;;;18.10
24639;BMP180;1641;51.306;12.384;2022-10-22T07:20:13;99888.00;;;18.10
24639;BMP180;1641;51.306;12.384;2022-10-22T07:22:39;99887.00;;;17.90
24639;BMP180;1641;51.306;12.384;2022-10-22T07:25:04;99895.00;;;18.00
24639;BMP180;1641;51.306;12.384;2022-10-22T07:27:29;99899.00;;;18.00
24639;BMP180;1641;51.306;12.384;2022-10-22T07:29:55;99901.00;;;18.20
24639;BMP180;1641;51.306;12.384;2022-10-22T07:32:20;99897.00;;;18.20
24639;BMP180;1641;51.306;12.384;2022-10-22T07:34:45;99903.00;;;18.20
24639;BMP180;1641;51.306;12.384;2022-10-22T07:37:11;99907.00;;;17.90
24639;BMP180;1641;51.306;12.384;2022-10-22T07:39:36;99912.00;;;18.10
24639;BMP180;1641;51.306;12.384;2022-10-22T07:42:01;99906.00;;;18.30
24639;BMP180;1641;51.306;12.384;2022-10-22T07:44:27;99918.00;;;18.10
24639;BMP180;1641;51.306;12.384;2022-10-22T07:46:52;99916.00;;;18.00
24639;BMP180;1641;51.306;12.384;2022-10-22T07:49:18;99916.00;;;18.00
24639;BMP180;1641;51.306;12.384;2022-10-22T07:51:43;99916.00;;;18.00
24639;BMP180;1641;51.306;12.384;2022-10-22T07:54:09;99924.00;;;17.80
24639;BMP180;1641;51.306;12.384;2022-10-22T07:56:34;99909.00;;;17.90
24639;BMP180;1641;51.306;12.384;2022-10-22T07:58:59;99895.00;;;17.60
24639;BMP180;1641;51.306;12.384;2022-10-22T08:01:25;99919.00;;;18.00
24639;BMP180;1641;51.306;12.384;2022-10-22T08:03:50;99918.00;;;18.20
24639;BMP180;1641;51.306;12.384;2022-10-22T08:06:16;99925.00;;;18.20
24639;BMP180;1641;51.306;12.384;2022-10-22T08:08:42;99930.00;;;18.30
24639;BMP180;1641;51.306;12.384;2022-10-22T08:11:09;99938.00;;;18.30
24639;BMP180;1641;51.306;12.384;2022-10-22T08:13:35;99925.00;;;18.10
24639;BMP180;1641;51.306;12.384;2022-10-22T08:16:00;99924.00;;;18.50
24639;BMP180;1641;51.306;12.384;2022-10-22T08:18:26;99920.00;;;18.30
24639;BMP180;1641;51.306;12.384;2022-10-22T08:20:52;99922.00;;;18.00
24639;BMP180;1641;51.306;12.384;2022-10-22T08:23:17;99933.00;;;18.00
24639;BMP180;1641;51.306;12.384;2022-10-22T08:25:42;99931.00;;;18.00
24639;BMP180;1641;51.306;12.384;2022-10-22T08:28:08;99920.00;;;18.30
24639;BMP180;1641;51.306;12.384;2022-10-22T08:30:33;99939.00;;;18.00
24639;BMP180;1641;51.306;12.384;2022-10-22T08:32:59;99934.00;;;18.10
24639;BMP180;1641;51.306;12.384;2022-10-22T08:35:25;99940.00;;;18.10
24639;BMP180;1641;51.306;12.384;2022-10-22T08:37:50;99939.00;;;17.90
24639;BMP180;1641;51.306;12.384;2022-10-22T08:40:38;99938.00;;;18.20
24639;BMP180;1641;51.306;12.384;2022-10-22T08:46:16;99943.00;;;18.20
24639;BMP180;1641;51.306;12.384;2022-10-22T08:48:54;99935.00;;;17.90
24639;BMP180;1641;51.306;12.384;2022-10-22T08:51:23;99957.00;;;18.30
24639;BMP180;1641;51.306;12.384;2022-10-22T09:00:04;99952.00;;;18.60
24639;BMP180;1641;51.306;12.384;2022-10-22T09:02:54;99965.00;;;18.40
24639;BMP180;1641;51.306;12.384;2022-10-22T09:05:32;99979.00;;;18.60
24639;BMP180;1641;51.306;12.384;2022-10-22T09:08:00;99976.00;;;18.60
24639;BMP180;1641;51.306;12.384;2022-10-22T09:10:32;99977.00;;;19.00
24639;BMP180;1641;51.306;12.384;2022-10-22T09:13:04;99953.00;;;19.00
24639;BMP180;1641;51.306;12.384;2022-10-22T09:15:30;99963.00;;;19.10
24639;BMP180;1641;51.306;12.384;2022-10-22T09:17:58;99983.00;;;19.00
24639;BMP180;1641;51.306;12.384;2022-10-22T09:20:49;99980.00;;;18.80
24639;BMP180;1641;51.306;12.384;2022-10-22T09:25:52;99978.00;;;19.40
24639;BMP180;1641;51.306;12.384;2022-10-22T09:28:19;99983.00;;;19.30
24639;BMP180;1641;51.306;12.384;2022-10-22T09:30:45;99990.00;;;19.60
24639;BMP180;1641;51.306;12.384;2022-10-22T09:33:23;99964.00;;;19.80
24639;BMP180;1641;51.306;12.384;2022-10-22T09:35:56;99984.00;;;20.20
24639;BMP180;1641;51.306;12.384;2022-10-22T09:38:27;99982.00;;;20.70
24639;BMP180;1641;51.306;12.384;2022-10-22T09:40:54;99990.00;;;20.60
24639;BMP180;1641;51.306;12.384;2022-10-22T09:43:20;99980.00;;;20.70
24639;BMP180;1641;51.306;12.384;2022-10-22T09:45:58;99981.00;;;21.00
24639;BMP180;1641;51.306;12.384;2022-10-22T09:48:35;99991.00;;;21.00
24639;BMP180;1641;51.306;12.384;2022-10-22T09:53:36;99964.00;;;20.60
24639;BMP180;1641;51.306;12.384;2022-10-22T09:56:08;99986.00;;;20.10
24639;BMP180;1641;51.306;12.384;2022-10-22T09:58:43;99948.00;;;19.90
24639;BMP180;1641;51.306;12.384;2022-10-22T10:01:17;99984.00;;;20.10
24639;BMP180;1641;51.306;12.384;2022-10-22T10:03:43;99989.00;;;20.30
24639;BMP180;1641;51.306;12.384;2022-10-22T10:06:08;99969.00;;;19.90
24639;BMP180;1641;51.306;12.384;2022-10-22T10:08:34;99999.00;;;19.70
24639;BMP180;1641;51.306;12.384;2022-10-22T10:11:10;99996.00;;;19.00
24639;BMP180;1641;51.306;12.384;2022-10-22T10:19:21;99987.00;;;19.10
24639;BMP180;1641;51.306;12.384;2022-10-22T10:22:18;99989.00;;;19.10
24639;BMP180;1641;51.306;12.384;2022-10-22T10:27:38;100009.00;;;19.30
24639;BMP180;1641;51.306;12.384;2022-10-22T10:30:11;99987.00;;;19.30
24639;BMP180;1641;51.306;12.384;2022-10-22T10:35:27;100000.00;;;19.10
24639;BMP180;1641;51.306;12.384;2022-10-22T10:40:43;99990.00;;;19.50
24639;BMP180;1641;51.306;12.384;2022-10-22T10:48:31;99996.00;;;19.50
24639;BMP180;1641;51.306;12.384;2022-10-22T10:51:20;99999.00;;;19.60
24639;BMP180;1641;51.306;12.384;2022-10-22T10:54:04;99993.00;;;19.80
24639;BMP180;1641;51.306;12.384;2022-10-22T10:56:36;100004.00;;;19.70
24639;BMP180;1641;51.306;12.384;2022-10-22T11:04:39;100005.00;;;20.00
24639;BMP180;1641;51.306;12.384;2022-10-22T11:07:10;99997.00;;;20.10
24639;BMP180;1641;51.306;12.384;2022-10-22T11:09:41;100000.00;;;20.00
24639;BMP180;1641;51.306;12.384;2022-10-22T11:12:14;99993.00;;;20.00
24639;BMP180;1641;51.306;12.384;2022-10-22T11:17:39;100010.00;;;19.80
24639;BMP180;1641;51.306;12.384;2022-10-22T11:20:15;100010.00;;;19.70
24639;BMP180;1641;51.306;12.384;2022-10-22T11:22:56;100006.00;;;20.00
24639;BMP180;1641;51.306;12.384;2022-10-22T11:25:28;100013.00;;;20.20
24639;BMP180;1641;51.306;12.384;2022-10-22T11:28:25;99996.00;;;20.00
24639;BMP180;1641;51.306;12.384;2022-10-22T11:31:03;100005.00;;;20.30
24639;BMP180;1641;51.306;12.384;2022-10-22T11:33:51;100007.00;;;20.50
24639;BMP180;1641;51.306;12.384;2022-10-22T11:36:21;100013.00;;;20.10
24639;BMP180;1641;51.306;12.384;2022-10-22T11:38:51;100010.00;;;20.60
24639;BMP180;1641;51.306;12.384;2022-10-22T11:41:26;100009.00;;;20.50
24639;BMP180;1641;51.306;12.384;2022-10-22T11:44:07;100015.00;;;20.20
24639;BMP180;1641;51.306;12.384;2022-10-22T11:50:25;100006.00;;;20.10
24639;BMP180;1641;51.306;12.384;2022-10-22T11:52:59;100010.00;;;20.30
24639;BMP180;1641;51.306;12.384;2022-10-22T12:08:44;100027.00;;;20.70
24639;BMP180;1641;51.306;12.384;2022-10-22T12:16:28;100044.00;;;20.10
24639;BMP180;1641;51.306;12.384;2022-10-22T12:19:25;100038.00;;;20.00
24639;BMP180;1641;51.306;12.384;2022-10-22T12:22:23;100031.00;;;20.40
24639;BMP180;1641;51.306;12.384;2022-10-22T12:24:55;100034.00;;;20.20
24639;BMP180;1641;51.306;12.384;2022-10-22T12:27:33;100022.00;;;19.90
24639;BMP180;1641;51.306;12.384;2022-10-22T12:30:00;100028.00;;;20.20
24639;BMP180;1641;51.306;12.384;2022-10-22T12:32:35;100032.00;;;20.80
24639;BMP180;1641;51.306;12.384;2022-10-22T12:35:05;100036.00;;;20.50
24639;BMP180;1641;51.306;12.384;2022-10-22T12:37:34;100035.00;;;20.70
24639;BMP180;1641;51.306;12.384;2022-10-22T12:40:00;100031.00;;;20.80
24639;BMP180;1641;51.306;12.384;2022-10-22T12:42:25;99993.00;;;20.80
24639;BMP180;1641;51.306;12.384;2022-10-22T12:44:57;100018.00;;;20.90
24639;BMP180;1641;51.306;12.384;2022-10-22T12:47:22;100033.00;;;20.90
24639;BMP180;1641;51.306;12.384;2022-10-22T12:49:48;100024.00;;;20.80
24639;BMP180;1641;51.306;12.384;2022-10-22T12:52:20;100026.00;;;20.90
24639;BMP180;1641;51.306;12.384;2022-10-22T12:54:49;100013.00;;;20.70
24639;BMP180;1641;51.306;12.384;2022-10-22T12:57:20;100032.00;;;20.10
24639;BMP180;1641;51.306;12.384;2022-10-22T12:59:49;100027.00;;;19.50
24639;BMP180;1641;51.306;12.384;2022-10-22T13:02:18;100031.00;;;19.70
24639;BMP180;1641;51.306;12.384;2022-10-22T13:05:21;100034.00;;;19.80
24639;BMP180;1641;51.306;12.384;2022-10-22T13:08:00;100030.00;;;19.80
24639;BMP180;1641;51.306;12.384;2022-10-22T13:10:34;100017.00;;;20.20
24639;BMP180;1641;51.306;12.384;2022-10-22T13:13:00;100023.00;;;20.60
24639;BMP180;1641;51.306;12.384;2022-10-22T13:18:17;100027.00;;;20.80
24639;BMP180;1641;51.306;12.384;2022-10-22T13:23:21;100027.00;;;21.10
24639;BMP180;1641;51.306;12.384;2022-10-22T13:26:11;100024.00;;;20.90
24639;BMP180;1641;51.306;12.384;2022-10-22T13:28:41;100030.00;;;21.00
24639;BMP180;1641;51.306;12.384;2022-10-22T13:31:10;100033.00;;;21.20
24639;BMP180;1641;51.306;12.384;2022-10-22T13:33:42;100035.00;;;21.20
24639;BMP180;1641;51.306;12.384;2022-10-22T13:36:12;100040.00;;;21.20
24639;BMP180;1641;51.306;12.384;2022-10-22T13:38:38;100046.00;;;20.50
24639;BMP180;1641;51.306;12.384;2022-10-22T13:41:04;100044.00;;;19.70
24639;BMP180;1641;51.306;12.384;2022-10-22T13:43:29;100037.00;;;20.00
24639;BMP180;1641;51.306;12.384;2022-10-22T13:45:57;100029.00;;;19.80
24639;BMP180;1641;51.306;12.384;2022-10-22T13:48:24;100031.00;;;20.00
24639;BMP180;1641;51.306;12.384;2022-10-22T13:50:51;100037.00;;;20.50
24639;BMP180;1641;51.306;12.384;2022-10-22T13:53:21;100033.00;;;20.80
24639;BMP180;1641;51.306;12.384;2022-10-22T13:55:47;100040.00;;;20.80
24639;BMP180;1641;51.306;12.384;2022-10-22T13:58:16;100044.00;;;20.70
24639;BMP180;1641;51.306;12.384;2022-10-22T14:00:53;100042.00;;;19.80
24639;BMP180;1641;51.306;12.384;2022-10-22T14:03:23;100038.00;;;20.50
24639;BMP180;1641;51.306;12.384;2022-10-22T14:05:49;100048.00;;;20.80
24639;BMP180;1641;51.306;12.384;2022-10-22T14:08:17;100042.00;;;20.90
24639;BMP180;1641;51.306;12.384;2022-10-22T14:10:43;100039.00;;;20.30
24639;BMP180;1641;51.306;12.384;2022-10-22T14:13:12;100039.00;;;20.50
24639;BMP180;1641;51.306;12.384;2022-10-22T14:15:38;100001.00;;;20.50
24639;BMP180;1641;51.306;12.384;2022-10-22T14:18:05;100035.00;;;20.90
24639;BMP180;1641;51.306;12.384;2022-10-22T14:20:35;100027.00;;;21.10
24639;BMP180;1641;51.306;12.384;2022-10-22T14:23:10;100032.00;;;21.30
24639;BMP180;1641;51.306;12.384;2022-10-22T14:25:37;100041.00;;;21.30
24639;BMP180;1641;51.306;12.384;2022-10-22T14:28:02;100041.00;;;21.20
24639;BMP180;1641;51.306;12.384;2022-10-22T14:30:27;100044.00;;;20.90
24639;BMP180;1641;51.306;12.384;2022-10-22T14:32:56;100039.00;;;21.00
24639;BMP180;1641;51.306;12.384;2022-10-22T14:35:22;100040.00;;;20.70
24639;BMP180;1641;51.306;12.384;2022-10-22T14:37:47;100035.00;;;20.60
24639;BMP180;1641;51.306;12.384;2022-10-22T14:40:15;100040.00;;;20.80
24639;BMP180;1641;51.306;12.384;2022-10-22T14:42:43;100045.00;;;20.90
24639;BMP180;1641;51.306;12.384;2022-10-22T14:45:14;100024.00;;;20.40
24639;BMP180;1641;51.306;12.384;2022-10-22T14:47:40;100027.00;;;20.70
24639;BMP180;1641;51.306;12.384;2022-10-22T14:50:06;100056.00;;;20.90
24639;BMP180;1641;51.306;12.384;2022-10-22T14:52:32;100060.00;;;21.10
24639;BMP180;1641;51.306;12.384;2022-10-22T14:54:57;100061.00;;;20.70
24639;BMP180;1641;51.306;12.384;2022-10-22T14:57:23;100070.00;;;20.40
24639;BMP180;1641;51.306;12.384;2022-10-22T14:59:48;100075.00;;;20.90
24639;BMP180;1641;51.306;12.384;2022-10-22T15:02:14;100066.00;;;20.50
24639;BMP180;1641;51.306;12.384;2022-10-22T15:04:39;100084.00;;;19.90
24639;BMP180;1641;51.306;12.384;2022-10-22T15:07:05;100082.00;;;19.60
24639;BMP180;1641;51.306;12.384;2022-10-22T15:09:30;100069.00;;;20.20
24639;BMP180;1641;51.306;12.384;2022-10-22T15:11:56;100078.00;;;20.10
24639;BMP180;1641;51.306;12.384;2022-10-22T15:14:21;100081.00;;;20.40
24639;BMP180;1641;51.306;12.384;2022-10-22T15:16:47;100086.00;;;20.20
24639;BMP180;1641;51.306;12.384;2022-10-22T15:19:12;100092.00;;;20.40
24639;BMP180;1641;51.306;12.384;2022-10-22T15:21:38;100091.00;;;20.40
24639;BMP180;1641;51.306;12.384;2022-10-22T15:24:03;100088.00;;;20.20
24639;BMP180;1641;51.306;12.384;2022-10-22T15:26:29;100083.00;;;20.20
24639;BMP180;1641;51.306;12.384;2022-10-22T15:28:54;100091.00;;;20.30
24639;BMP180;1641;51.306;12.384;2022-10-22T15:31:40;100099.00;;;19.70
24639;BMP180;1641;51.306;12.384;2022-10-22T15:34:06;100093.00;;;19.90
24639;BMP180;1641;51.306;12.384;2022-10-22T15:36:31;100087.00;;;19.80
24639;BMP180;1641;51.306;12.384;2022-10-22T15:38:56;100104.00;;;20.00
24639;BMP180;1641;51.306;12.384;2022-10-22T15:41:22;100108.00;;;19.90
24639;BMP180;1641;51.306;12.384;2022-10-22T15:43:47;100108.00;;;19.60
24639;BMP180;1641;51.306;12.384;2022-10-22T15:46:15;100110.00;;;19.80
24639;BMP180;1641;51.306;12.384;2022-10-22T15:48:41;100116.00;;;19.80